createdAt,value
2022-11-21T00:03:58.650Z,1.08
2022-11-21T00:09:05.625Z,0.99
2022-11-21T00:14:12.768Z,0.98
2022-11-21T00:19:19.673Z,1.83
2022-11-21T00:24:27.139Z,1.54
2022-11-21T00:29:33.978Z,1.03
2022-11-21T00:34:41.134Z,1.39
2022-11-21T00:39:48.117Z,1.99
2022-11-21T00:44:55.316Z,1.02
2022-11-21T00:50:02.278Z,1.74
2022-11-21T00:55:10.296Z,1.16
2022-11-21T01:00:19.765Z,1.05
2022-11-21T01:05:27.001Z,4.60
2022-11-21T01:15:43.604Z,3.70
2022-11-21T01:20:50.563Z,0.92
2022-11-21T01:25:57.684Z,0.99
2022-11-21T01:31:04.614Z,0.95
2022-11-21T01:36:11.726Z,0.85
2022-11-21T01:41:18.763Z,1.20
2022-11-21T01:46:25.992Z,1.31
2022-11-21T01:51:33.089Z,0.95
2022-11-21T01:56:40.368Z,1.04
2022-11-21T02:01:47.331Z,1.36
2022-11-21T02:06:54.482Z,0.84
2022-11-21T02:12:01.463Z,0.97
2022-11-21T02:17:08.683Z,0.90
2022-11-21T02:22:15.626Z,1.13
2022-11-21T02:27:22.861Z,2.33
2022-11-21T02:32:29.891Z,1.00
2022-11-21T02:37:36.984Z,0.96
2022-11-21T02:42:45.267Z,1.72
2022-11-21T02:47:50.551Z,2.35
2022-11-21T02:52:57.549Z,1.60
2022-11-21T02:58:05.280Z,0.91
2022-11-21T03:03:11.103Z,1.44
2022-11-21T03:08:18.277Z,1.45
2022-11-21T03:13:25.266Z,1.14
2022-11-21T03:18:32.383Z,0.92
2022-11-21T03:23:39.478Z,0.94
2022-11-21T03:28:46.520Z,0.75
2022-11-21T03:33:53.596Z,0.82
2022-11-21T03:39:01.152Z,1.19
2022-11-21T03:44:08.156Z,0.91
2022-11-21T03:49:15.349Z,1.44
2022-11-21T03:54:22.385Z,2.50
2022-11-21T03:59:29.734Z,1.46
2022-11-21T04:04:36.754Z,1.03
2022-11-21T04:09:43.911Z,1.00
2022-11-21T04:14:50.950Z,0.86
2022-11-21T04:19:58.033Z,0.81
2022-11-21T04:25:05.010Z,0.98
2022-11-21T04:30:12.188Z,0.87
2022-11-21T04:35:19.145Z,0.87
2022-11-21T04:40:26.173Z,0.85
2022-11-21T04:45:33.190Z,1.62
2022-11-21T04:50:40.276Z,0.83
2022-11-21T04:55:47.337Z,1.36
2022-11-21T05:00:54.593Z,2.76
2022-11-21T05:06:01.581Z,1.67
2022-11-21T05:11:08.747Z,1.34
2022-11-21T05:16:15.750Z,1.50
2022-11-21T05:21:25.635Z,1.44
2022-11-21T05:26:32.746Z,1.69
2022-11-21T05:31:39.783Z,1.16
2022-11-21T05:36:46.936Z,1.33
2022-11-21T05:42:01.473Z,1.06
2022-11-21T05:47:03.625Z,1.39
2022-11-21T05:52:10.870Z,1.40
2022-11-21T05:57:17.874Z,1.78
2022-11-21T06:02:25.131Z,1.55
2022-11-21T06:07:32.117Z,2.17
2022-11-21T06:12:39.276Z,2.79
2022-11-21T06:17:46.273Z,3.66
2022-11-21T06:22:53.999Z,1.38
2022-11-21T06:28:02.374Z,2.47
2022-11-21T06:33:09.662Z,1.93
2022-11-21T06:38:16.607Z,2.31
2022-11-21T06:43:23.911Z,1.52
2022-11-21T06:48:30.997Z,2.03
2022-11-21T06:53:38.390Z,3.45
2022-11-21T06:58:45.580Z,3.87
2022-11-21T07:09:31.623Z,3.76
2022-11-21T07:14:09.996Z,3.96
2022-11-21T07:19:17.092Z,10.50
2022-11-21T07:24:24.466Z,3.45
2022-11-21T07:29:31.507Z,3.69
2022-11-21T07:34:38.539Z,2.68
2022-11-21T07:39:45.599Z,3.71
2022-11-21T07:44:52.708Z,3.11
2022-11-21T07:49:59.686Z,4.11
2022-11-21T07:55:07.049Z,4.82
2022-11-21T08:00:14.200Z,4.49
2022-11-21T08:05:21.334Z,4.98
2022-11-21T08:10:28.506Z,3.96
2022-11-21T08:15:35.920Z,4.52
2022-11-21T08:20:42.964Z,4.04
2022-11-21T08:25:50.102Z,6.24
2022-11-21T08:30:57.196Z,12.21
2022-11-21T08:36:04.371Z,6.34
2022-11-21T08:41:17.300Z,5.81
2022-11-21T08:46:18.163Z,5.16
2022-11-21T08:51:25.189Z,13.89
2022-11-21T08:56:32.322Z,6.16
2022-11-21T09:01:39.403Z,6.20
2022-11-21T09:06:47.923Z,7.76
2022-11-21T09:11:53.297Z,7.52
2022-11-21T09:17:02.259Z,6.51
2022-11-21T09:22:06.906Z,6.04
2022-11-21T09:27:14.202Z,7.17
2022-11-21T09:32:21.296Z,7.92
2022-11-21T09:37:28.574Z,5.73
2022-11-21T09:42:35.598Z,7.64
2022-11-21T09:47:42.792Z,8.18
2022-11-21T09:52:49.792Z,8.13
2022-11-21T09:57:57.084Z,8.48
2022-11-21T10:03:04.199Z,8.58
2022-11-21T10:08:11.703Z,8.13
2022-11-21T10:13:18.698Z,7.81
2022-11-21T10:18:25.923Z,7.30
2022-11-21T10:23:32.977Z,8.69
2022-11-21T10:28:40.238Z,7.38
2022-11-21T10:33:50.082Z,8.48
2022-11-21T10:38:57.221Z,7.99
2022-11-21T10:44:04.213Z,10.01
2022-11-21T10:49:11.435Z,10.32
2022-11-21T10:54:18.468Z,10.06
2022-11-21T10:59:30.483Z,9.61
2022-11-21T11:04:45.606Z,10.31
2022-11-21T11:09:40.462Z,11.20
2022-11-21T11:14:47.431Z,9.68
2022-11-21T11:19:54.559Z,11.10
2022-11-21T11:25:01.620Z,10.81
2022-11-21T11:30:08.971Z,11.26
2022-11-21T11:35:16.062Z,11.08
2022-11-21T11:40:23.355Z,10.29
2022-11-21T11:45:30.461Z,11.11
2022-11-21T11:50:37.666Z,11.09
2022-11-21T11:55:44.759Z,10.54
2022-11-21T12:00:53.047Z,10.47
2022-11-21T12:06:02.520Z,11.53
2022-11-21T12:11:06.916Z,10.49
2022-11-21T12:16:14.143Z,9.25
2022-11-21T12:21:21.015Z,10.53
2022-11-21T12:26:28.010Z,13.13
2022-11-21T12:31:35.105Z,9.81
2022-11-21T12:36:42.127Z,11.07
2022-11-21T12:41:49.233Z,10.48
2022-11-21T12:46:56.220Z,10.69
2022-11-21T12:52:03.439Z,12.47
2022-11-21T12:57:10.560Z,9.49
2022-11-21T13:02:17.840Z,11.04
2022-11-21T13:07:24.890Z,10.54
2022-11-21T13:12:32.194Z,13.31
2022-11-21T13:17:39.334Z,13.60
2022-11-21T13:22:47.176Z,17.87
2022-11-21T13:27:53.395Z,14.98
2022-11-21T13:33:01.716Z,12.29
2022-11-21T13:38:08.724Z,12.98
2022-11-21T13:48:22.585Z,12.80
2022-11-21T13:53:29.923Z,11.62
2022-11-21T13:58:36.533Z,11.04
2022-11-21T14:03:44.848Z,12.03
2022-11-21T14:08:52.042Z,12.71
2022-11-21T14:13:59.304Z,9.19
2022-11-21T14:19:06.288Z,11.60
2022-11-21T14:24:13.470Z,10.73
2022-11-21T14:29:20.965Z,15.42
2022-11-21T14:34:28.442Z,12.03
2022-11-21T14:39:38.177Z,9.31
2022-11-21T14:44:41.785Z,13.04
2022-11-21T14:49:48.912Z,10.88
2022-11-21T14:55:27.840Z,10.58
2022-11-21T15:00:02.685Z,15.77
2022-11-21T15:05:10.109Z,8.41
2022-11-21T15:10:36.129Z,6.94
2022-11-21T15:15:24.146Z,7.67
2022-11-21T15:20:31.264Z,8.48
2022-11-21T15:25:38.319Z,11.06
2022-11-21T15:30:45.373Z,13.24
2022-11-21T15:35:52.431Z,10.62
2022-11-21T15:40:59.586Z,16.18
2022-11-21T15:46:06.736Z,12.37
2022-11-21T15:51:13.689Z,6.91
2022-11-21T15:56:22.762Z,11.94
2022-11-21T16:01:27.674Z,7.15
2022-11-21T16:06:35.031Z,11.32
2022-11-21T16:11:42.104Z,24.62
2022-11-21T16:16:49.458Z,27.64
2022-11-21T16:21:56.434Z,20.73
2022-11-21T16:27:03.769Z,13.58
2022-11-21T16:32:10.787Z,6.33
2022-11-21T16:37:17.965Z,12.76
2022-11-21T16:42:17.991Z,5.69
2022-11-21T16:47:25.150Z,5.88
2022-11-21T16:52:32.160Z,5.29
2022-11-21T16:57:39.282Z,6.90
2022-11-21T17:02:47.153Z,6.23
2022-11-21T17:07:53.186Z,7.98
2022-11-21T17:13:01.275Z,5.47
2022-11-21T17:18:08.661Z,4.85
2022-11-21T17:23:18.001Z,10.55
2022-11-21T17:28:24.256Z,66.85
2022-11-21T17:33:31.238Z,38.31
2022-11-21T17:38:39.173Z,22.38
2022-11-21T17:43:47.154Z,5.11
2022-11-21T17:48:55.454Z,6.57
2022-11-21T17:53:59.552Z,4.16
2022-11-21T17:59:06.556Z,5.96
2022-11-21T18:04:15.428Z,5.61
2022-11-21T18:09:20.438Z,5.46
2022-11-21T18:14:27.757Z,4.09
2022-11-21T18:19:34.280Z,4.35
2022-11-21T18:24:41.712Z,4.79
2022-11-21T18:29:48.755Z,4.58
2022-11-21T18:34:55.650Z,4.77
2022-11-21T18:40:02.885Z,4.21
2022-11-21T18:45:09.765Z,3.93
2022-11-21T18:50:16.911Z,3.49
2022-11-21T18:55:23.840Z,4.94
2022-11-21T19:00:30.882Z,4.14
2022-11-21T19:05:37.840Z,3.48
2022-11-21T19:10:44.875Z,3.90
2022-11-21T19:15:51.815Z,3.46
2022-11-21T19:20:58.876Z,13.63
2022-11-21T19:26:05.850Z,12.83
2022-11-21T19:31:12.883Z,21.09
2022-11-21T19:36:19.783Z,5.45
2022-11-21T19:41:26.871Z,34.02
2022-11-21T19:46:33.834Z,33.45
2022-11-21T19:51:40.889Z,56.62
2022-11-21T19:56:47.854Z,48.83
2022-11-21T20:01:54.871Z,60.64
2022-11-21T20:07:07.385Z,47.52
2022-11-21T20:12:08.357Z,41.36
2022-11-21T20:17:15.336Z,45.08
2022-11-21T20:22:22.418Z,47.32
2022-11-21T20:27:29.340Z,3.47
2022-11-21T20:32:36.406Z,3.76
2022-11-21T20:37:43.329Z,3.26
2022-11-21T20:42:50.387Z,3.65
2022-11-21T20:47:57.276Z,3.36
2022-11-21T20:58:10.852Z,4.96
2022-11-21T21:03:17.984Z,3.54
2022-11-21T21:08:24.874Z,120.94
2022-11-21T21:13:32.048Z,155.43
2022-11-21T21:18:39.087Z,90.23
2022-11-21T21:23:46.079Z,7.91
2022-11-21T21:28:52.977Z,14.58
2022-11-21T21:34:00.137Z,3.66
2022-11-21T21:39:07.042Z,21.05
2022-11-21T21:44:14.319Z,3.63
2022-11-21T21:49:21.094Z,4.09
2022-11-21T21:54:28.312Z,3.28
2022-11-21T21:59:35.074Z,23.47
2022-11-21T22:04:42.092Z,82.72
2022-11-21T22:09:49.030Z,22.54
2022-11-21T22:14:56.192Z,35.19
2022-11-21T22:20:03.078Z,12.98
2022-11-21T22:25:10.202Z,75.67
2022-11-21T22:30:17.127Z,7.78
2022-11-21T22:35:24.303Z,4.96
2022-11-21T22:40:31.200Z,3.70
2022-11-21T22:45:38.224Z,6.44
2022-11-21T22:50:45.136Z,2.84
2022-11-21T22:55:52.132Z,2.48
2022-11-21T23:00:59.009Z,2.77
2022-11-21T23:06:06.008Z,3.29
2022-11-21T23:11:12.904Z,4.30
2022-11-21T23:16:20.158Z,3.30
2022-11-21T23:21:27.075Z,4.17
2022-11-21T23:26:34.116Z,5.38
2022-11-21T23:31:41.030Z,3.42
2022-11-21T23:36:48.199Z,2.29
2022-11-21T23:41:55.093Z,2.70
2022-11-21T23:47:02.306Z,5.64
2022-11-21T23:52:09.226Z,2.52
2022-11-21T23:57:16.335Z,3.26
